sensor_id;sensor_type;location;lat;lon;timestamp;P1;durP1;ratioP1;P2;durP2;ratioP2
56537;SDS011;42435;53.292;6.000;2022-08-20T00:00:15;7.32;;;2.63;;
56537;SDS011;42435;53.292;6.000;2022-08-20T00:02:46;4.90;;;2.90;;
56537;SDS011;42435;53.292;6.000;2022-08-20T00:05:23;5.25;;;2.38;;
56537;SDS011;42435;53.292;6.000;2022-08-20T00:08:01;2.30;;;2.10;;
56537;SDS011;42435;53.292;6.000;2022-08-20T00:10:31;5.93;;;2.67;;
56537;SDS011;42435;53.292;6.000;2022-08-20T00:12:58;4.88;;;2.17;;
56537;SDS011;42435;53.292;6.000;2022-08-20T00:15:26;4.93;;;2.30;;
56537;SDS011;42435;53.292;6.000;2022-08-20T00:17:54;6.53;;;2.70;;
56537;SDS011;42435;53.292;6.000;2022-08-20T00:20:21;4.72;;;2.10;;
56537;SDS011;42435;53.292;6.000;2022-08-20T00:22:48;5.03;;;2.40;;
56537;SDS011;42435;53.292;6.000;2022-08-20T00:25:14;4.20;;;1.75;;
56537;SDS011;42435;53.292;6.000;2022-08-20T00:27:41;4.57;;;1.90;;
56537;SDS011;42435;53.292;6.000;2022-08-20T00:30:07;3.17;;;1.73;;
56537;SDS011;42435;53.292;6.000;2022-08-20T00:32:45;4.60;;;1.80;;
56537;SDS011;42435;53.292;6.000;2022-08-20T00:35:17;4.43;;;2.90;;
56537;SDS011;42435;53.292;6.000;2022-08-20T00:37:44;7.13;;;3.05;;
56537;SDS011;42435;53.292;6.000;2022-08-20T00:40:10;6.13;;;2.70;;
56537;SDS011;42435;53.292;6.000;2022-08-20T00:42:39;7.00;;;3.08;;
56537;SDS011;42435;53.292;6.000;2022-08-20T00:45:10;8.18;;;3.67;;
56537;SDS011;42435;53.292;6.000;2022-08-20T00:47:36;6.30;;;3.08;;
56537;SDS011;42435;53.292;6.000;2022-08-20T00:50:05;5.82;;;3.65;;
56537;SDS011;42435;53.292;6.000;2022-08-20T00:52:31;8.18;;;2.40;;
56537;SDS011;42435;53.292;6.000;2022-08-20T00:54:58;3.67;;;2.20;;
56537;SDS011;42435;53.292;6.000;2022-08-20T00:57:33;6.20;;;2.10;;
56537;SDS011;42435;53.292;6.000;2022-08-20T01:00:04;4.43;;;2.25;;
56537;SDS011;42435;53.292;6.000;2022-08-20T01:02:35;5.40;;;2.15;;
56537;SDS011;42435;53.292;6.000;2022-08-20T01:05:01;4.03;;;1.50;;
56537;SDS011;42435;53.292;6.000;2022-08-20T01:07:28;5.90;;;2.17;;
56537;SDS011;42435;53.292;6.000;2022-08-20T01:09:59;4.60;;;2.42;;
56537;SDS011;42435;53.292;6.000;2022-08-20T01:12:28;5.43;;;2.30;;
56537;SDS011;42435;53.292;6.000;2022-08-20T01:14:54;4.57;;;1.75;;
56537;SDS011;42435;53.292;6.000;2022-08-20T01:17:23;4.10;;;1.85;;
56537;SDS011;42435;53.292;6.000;2022-08-20T01:20:01;4.28;;;2.33;;
56537;SDS011;42435;53.292;6.000;2022-08-20T01:22:29;6.43;;;2.75;;
56537;SDS011;42435;53.292;6.000;2022-08-20T01:25:40;8.30;;;2.95;;
56537;SDS011;42435;53.292;6.000;2022-08-20T01:28:13;7.68;;;2.40;;
56537;SDS011;42435;53.292;6.000;2022-08-20T01:30:43;5.70;;;1.92;;
56537;SDS011;42435;53.292;6.000;2022-08-20T01:33:09;3.33;;;2.35;;
56537;SDS011;42435;53.292;6.000;2022-08-20T01:35:36;7.43;;;2.00;;
56537;SDS011;42435;53.292;6.000;2022-08-20T01:38:04;5.00;;;2.30;;
56537;SDS011;42435;53.292;6.000;2022-08-20T01:43:32;6.25;;;2.17;;
56537;SDS011;42435;53.292;6.000;2022-08-20T01:45:58;3.17;;;1.48;;
56537;SDS011;42435;53.292;6.000;2022-08-20T01:48:24;3.15;;;1.40;;
56537;SDS011;42435;53.292;6.000;2022-08-20T01:51:02;6.40;;;1.80;;
56537;SDS011;42435;53.292;6.000;2022-08-20T01:53:39;2.95;;;1.38;;
56537;SDS011;42435;53.292;6.000;2022-08-20T01:56:09;3.28;;;1.90;;
56537;SDS011;42435;53.292;6.000;2022-08-20T01:58:39;8.77;;;2.75;;
56537;SDS011;42435;53.292;6.000;2022-08-20T02:01:06;7.15;;;2.63;;
56537;SDS011;42435;53.292;6.000;2022-08-20T02:03:42;4.25;;;1.13;;
56537;SDS011;42435;53.292;6.000;2022-08-20T02:06:08;3.28;;;1.40;;
56537;SDS011;42435;53.292;6.000;2022-08-20T02:08:34;6.38;;;1.95;;
56537;SDS011;42435;53.292;6.000;2022-08-20T02:10:59;4.32;;;1.70;;
56537;SDS011;42435;53.292;6.000;2022-08-20T02:13:25;6.38;;;1.92;;
56537;SDS011;42435;53.292;6.000;2022-08-20T02:15:51;6.38;;;1.60;;
56537;SDS011;42435;53.292;6.000;2022-08-20T02:18:16;2.72;;;1.25;;
56537;SDS011;42435;53.292;6.000;2022-08-20T02:20:42;5.03;;;1.20;;
56537;SDS011;42435;53.292;6.000;2022-08-20T02:23:10;3.97;;;1.65;;
56537;SDS011;42435;53.292;6.000;2022-08-20T02:25:36;3.78;;;1.58;;
56537;SDS011;42435;53.292;6.000;2022-08-20T02:28:07;4.05;;;1.30;;
56537;SDS011;42435;53.292;6.000;2022-08-20T02:30:37;5.20;;;1.85;;
56537;SDS011;42435;53.292;6.000;2022-08-20T02:33:08;5.43;;;1.15;;
56537;SDS011;42435;53.292;6.000;2022-08-20T02:35:36;4.25;;;1.33;;
56537;SDS011;42435;53.292;6.000;2022-08-20T02:38:04;6.30;;;1.60;;
56537;SDS011;42435;53.292;6.000;2022-08-20T02:40:30;3.88;;;1.40;;
56537;SDS011;42435;53.292;6.000;2022-08-20T02:45:25;5.47;;;1.50;;
56537;SDS011;42435;53.292;6.000;2022-08-20T02:47:51;3.00;;;1.00;;
56537;SDS011;42435;53.292;6.000;2022-08-20T02:50:20;1.52;;;0.90;;
56537;SDS011;42435;53.292;6.000;2022-08-20T02:52:46;4.97;;;1.30;;
56537;SDS011;42435;53.292;6.000;2022-08-20T02:55:12;4.88;;;1.15;;
56537;SDS011;42435;53.292;6.000;2022-08-20T02:57:40;5.10;;;1.88;;
56537;SDS011;42435;53.292;6.000;2022-08-20T03:00:11;3.90;;;1.40;;
56537;SDS011;42435;53.292;6.000;2022-08-20T03:02:40;6.57;;;2.25;;
56537;SDS011;42435;53.292;6.000;2022-08-20T03:05:06;4.47;;;1.27;;
56537;SDS011;42435;53.292;6.000;2022-08-20T03:07:43;5.65;;;0.90;;
56537;SDS011;42435;53.292;6.000;2022-08-20T03:10:10;5.63;;;1.30;;
56537;SDS011;42435;53.292;6.000;2022-08-20T03:12:39;3.83;;;1.13;;
56537;SDS011;42435;53.292;6.000;2022-08-20T03:15:05;3.38;;;1.00;;
56537;SDS011;42435;53.292;6.000;2022-08-20T03:17:33;5.63;;;1.25;;
56537;SDS011;42435;53.292;6.000;2022-08-20T03:20:00;3.95;;;1.23;;
56537;SDS011;42435;53.292;6.000;2022-08-20T03:22:26;2.78;;;1.08;;
56537;SDS011;42435;53.292;6.000;2022-08-20T03:24:51;5.65;;;1.27;;
56537;SDS011;42435;53.292;6.000;2022-08-20T03:27:17;4.15;;;0.95;;
56537;SDS011;42435;53.292;6.000;2022-08-20T03:29:43;4.43;;;1.20;;
56537;SDS011;42435;53.292;6.000;2022-08-20T03:32:08;3.53;;;1.00;;
56537;SDS011;42435;53.292;6.000;2022-08-20T03:34:34;5.95;;;1.25;;
56537;SDS011;42435;53.292;6.000;2022-08-20T03:36:59;3.67;;;1.02;;
56537;SDS011;42435;53.292;6.000;2022-08-20T03:39:25;1.55;;;0.82;;
56537;SDS011;42435;53.292;6.000;2022-08-20T03:41:50;3.78;;;1.35;;
56537;SDS011;42435;53.292;6.000;2022-08-20T03:44:16;3.53;;;0.80;;
56537;SDS011;42435;53.292;6.000;2022-08-20T03:46:42;2.65;;;0.70;;
56537;SDS011;42435;53.292;6.000;2022-08-20T03:49:08;2.72;;;0.93;;
56537;SDS011;42435;53.292;6.000;2022-08-20T03:51:34;4.22;;;1.05;;
56537;SDS011;42435;53.292;6.000;2022-08-20T03:53:59;2.60;;;1.10;;
56537;SDS011;42435;53.292;6.000;2022-08-20T03:56:25;5.45;;;1.40;;
56537;SDS011;42435;53.292;6.000;2022-08-20T03:58:50;3.70;;;0.70;;
56537;SDS011;42435;53.292;6.000;2022-08-20T04:01:16;4.25;;;1.00;;
56537;SDS011;42435;53.292;6.000;2022-08-20T04:03:42;2.00;;;1.17;;
56537;SDS011;42435;53.292;6.000;2022-08-20T04:06:09;5.20;;;0.80;;
56537;SDS011;42435;53.292;6.000;2022-08-20T04:08:34;2.80;;;0.93;;
56537;SDS011;42435;53.292;6.000;2022-08-20T04:11:01;5.57;;;0.80;;
56537;SDS011;42435;53.292;6.000;2022-08-20T04:13:27;4.75;;;0.85;;
56537;SDS011;42435;53.292;6.000;2022-08-20T04:15:54;2.85;;;0.90;;
56537;SDS011;42435;53.292;6.000;2022-08-20T04:18:21;1.83;;;0.85;;
56537;SDS011;42435;53.292;6.000;2022-08-20T04:20:48;2.72;;;0.95;;
56537;SDS011;42435;53.292;6.000;2022-08-20T04:23:15;3.63;;;1.10;;
56537;SDS011;42435;53.292;6.000;2022-08-20T04:25:41;4.53;;;1.50;;
56537;SDS011;42435;53.292;6.000;2022-08-20T04:28:09;3.80;;;1.30;;
56537;SDS011;42435;53.292;6.000;2022-08-20T04:30:38;3.10;;;0.75;;
56537;SDS011;42435;53.292;6.000;2022-08-20T04:33:06;4.88;;;1.33;;
56537;SDS011;42435;53.292;6.000;2022-08-20T04:35:32;2.78;;;1.25;;
56537;SDS011;42435;53.292;6.000;2022-08-20T04:38:02;2.45;;;0.68;;
56537;SDS011;42435;53.292;6.000;2022-08-20T04:40:30;1.52;;;0.70;;
56537;SDS011;42435;53.292;6.000;2022-08-20T04:45:41;4.88;;;0.88;;
56537;SDS011;42435;53.292;6.000;2022-08-20T04:48:07;1.58;;;0.80;;
56537;SDS011;42435;53.292;6.000;2022-08-20T04:50:34;4.95;;;0.93;;
56537;SDS011;42435;53.292;6.000;2022-08-20T04:53:01;3.67;;;0.82;;
56537;SDS011;42435;53.292;6.000;2022-08-20T04:57:55;3.08;;;0.52;;
56537;SDS011;42435;53.292;6.000;2022-08-20T05:00:26;4.07;;;0.70;;
56537;SDS011;42435;53.292;6.000;2022-08-20T05:02:52;2.20;;;1.33;;
56537;SDS011;42435;53.292;6.000;2022-08-20T05:05:17;4.30;;;1.45;;
56537;SDS011;42435;53.292;6.000;2022-08-20T05:07:45;5.50;;;1.20;;
56537;SDS011;42435;53.292;6.000;2022-08-20T05:10:11;2.92;;;0.80;;
56537;SDS011;42435;53.292;6.000;2022-08-20T05:12:40;3.05;;;1.00;;
56537;SDS011;42435;53.292;6.000;2022-08-20T05:15:06;2.67;;;1.00;;
56537;SDS011;42435;53.292;6.000;2022-08-20T05:17:35;1.10;;;0.80;;
56537;SDS011;42435;53.292;6.000;2022-08-20T05:20:02;4.55;;;1.48;;
56537;SDS011;42435;53.292;6.000;2022-08-20T05:22:28;4.65;;;1.40;;
56537;SDS011;42435;53.292;6.000;2022-08-20T05:24:54;1.38;;;0.90;;
56537;SDS011;42435;53.292;6.000;2022-08-20T05:27:21;2.55;;;1.20;;
56537;SDS011;42435;53.292;6.000;2022-08-20T05:29:51;4.57;;;1.42;;
56537;SDS011;42435;53.292;6.000;2022-08-20T05:32:31;2.05;;;1.10;;
56537;SDS011;42435;53.292;6.000;2022-08-20T05:34:57;4.00;;;1.50;;
56537;SDS011;42435;53.292;6.000;2022-08-20T05:37:24;4.18;;;1.52;;
56537;SDS011;42435;53.292;6.000;2022-08-20T05:39:50;5.30;;;1.98;;
56537;SDS011;42435;53.292;6.000;2022-08-20T05:42:15;1.88;;;1.30;;
56537;SDS011;42435;53.292;6.000;2022-08-20T05:44:41;2.55;;;1.02;;
56537;SDS011;42435;53.292;6.000;2022-08-20T05:47:07;6.30;;;2.20;;
56537;SDS011;42435;53.292;6.000;2022-08-20T05:49:34;3.45;;;1.38;;
56537;SDS011;42435;53.292;6.000;2022-08-20T05:52:01;5.57;;;1.33;;
56537;SDS011;42435;53.292;6.000;2022-08-20T05:54:27;3.90;;;1.08;;
56537;SDS011;42435;53.292;6.000;2022-08-20T05:56:53;6.13;;;1.60;;
56537;SDS011;42435;53.292;6.000;2022-08-20T05:59:19;5.90;;;1.20;;
56537;SDS011;42435;53.292;6.000;2022-08-20T06:01:46;2.15;;;1.27;;
56537;SDS011;42435;53.292;6.000;2022-08-20T06:04:12;6.75;;;1.42;;
56537;SDS011;42435;53.292;6.000;2022-08-20T06:06:52;4.30;;;0.90;;
56537;SDS011;42435;53.292;6.000;2022-08-20T06:09:21;3.72;;;0.85;;
56537;SDS011;42435;53.292;6.000;2022-08-20T06:11:48;5.72;;;1.88;;
56537;SDS011;42435;53.292;6.000;2022-08-20T06:14:14;5.63;;;1.67;;
56537;SDS011;42435;53.292;6.000;2022-08-20T06:19:06;7.13;;;1.40;;
56537;SDS011;42435;53.292;6.000;2022-08-20T06:21:32;8.70;;;1.48;;
56537;SDS011;42435;53.292;6.000;2022-08-20T06:23:58;2.33;;;1.00;;
56537;SDS011;42435;53.292;6.000;2022-08-20T06:26:23;2.90;;;0.80;;
56537;SDS011;42435;53.292;6.000;2022-08-20T06:28:49;5.72;;;1.40;;
56537;SDS011;42435;53.292;6.000;2022-08-20T06:31:15;7.18;;;1.33;;
56537;SDS011;42435;53.292;6.000;2022-08-20T06:33:40;3.63;;;1.30;;
56537;SDS011;42435;53.292;6.000;2022-08-20T06:36:06;4.60;;;1.15;;
56537;SDS011;42435;53.292;6.000;2022-08-20T06:38:32;2.00;;;0.80;;
56537;SDS011;42435;53.292;6.000;2022-08-20T06:43:24;3.78;;;0.95;;
56537;SDS011;42435;53.292;6.000;2022-08-20T06:45:50;4.07;;;1.52;;
56537;SDS011;42435;53.292;6.000;2022-08-20T06:48:16;5.57;;;1.33;;
56537;SDS011;42435;53.292;6.000;2022-08-20T06:50:43;7.53;;;1.58;;
56537;SDS011;42435;53.292;6.000;2022-08-20T06:53:11;3.58;;;1.45;;
56537;SDS011;42435;53.292;6.000;2022-08-20T06:55:40;5.88;;;0.90;;
56537;SDS011;42435;53.292;6.000;2022-08-20T06:58:10;4.25;;;1.27;;
56537;SDS011;42435;53.292;6.000;2022-08-20T07:00:37;7.55;;;1.33;;
56537;SDS011;42435;53.292;6.000;2022-08-20T07:03:04;3.10;;;1.20;;
56537;SDS011;42435;53.292;6.000;2022-08-20T07:05:32;4.78;;;1.23;;
56537;SDS011;42435;53.292;6.000;2022-08-20T07:07:59;3.72;;;1.05;;
56537;SDS011;42435;53.292;6.000;2022-08-20T07:12:51;4.05;;;1.13;;
56537;SDS011;42435;53.292;6.000;2022-08-20T07:15:17;3.35;;;1.00;;
56537;SDS011;42435;53.292;6.000;2022-08-20T07:17:49;2.70;;;0.85;;
56537;SDS011;42435;53.292;6.000;2022-08-20T07:20:19;2.92;;;0.57;;
56537;SDS011;42435;53.292;6.000;2022-08-20T07:22:45;5.10;;;0.75;;
56537;SDS011;42435;53.292;6.000;2022-08-20T07:25:12;2.67;;;0.60;;
56537;SDS011;42435;53.292;6.000;2022-08-20T07:27:40;2.40;;;0.60;;
56537;SDS011;42435;53.292;6.000;2022-08-20T07:30:07;2.63;;;0.50;;
56537;SDS011;42435;53.292;6.000;2022-08-20T07:32:54;3.42;;;0.88;;
56537;SDS011;42435;53.292;6.000;2022-08-20T07:35:21;2.97;;;0.77;;
56537;SDS011;42435;53.292;6.000;2022-08-20T07:37:47;7.25;;;1.33;;
56537;SDS011;42435;53.292;6.000;2022-08-20T07:40:26;2.63;;;0.77;;
56537;SDS011;42435;53.292;6.000;2022-08-20T07:42:54;3.25;;;1.02;;
56537;SDS011;42435;53.292;6.000;2022-08-20T07:45:22;4.15;;;0.80;;
56537;SDS011;42435;53.292;6.000;2022-08-20T07:47:48;4.30;;;0.85;;
56537;SDS011;42435;53.292;6.000;2022-08-20T07:50:17;4.05;;;0.73;;
56537;SDS011;42435;53.292;6.000;2022-08-20T07:52:45;5.85;;;1.13;;
56537;SDS011;42435;53.292;6.000;2022-08-20T07:55:11;4.30;;;0.82;;
56537;SDS011;42435;53.292;6.000;2022-08-20T07:57:39;3.65;;;1.70;;
56537;SDS011;42435;53.292;6.000;2022-08-20T08:00:06;4.00;;;0.95;;
56537;SDS011;42435;53.292;6.000;2022-08-20T08:02:32;6.38;;;1.30;;
56537;SDS011;42435;53.292;6.000;2022-08-20T08:04:59;5.78;;;1.00;;
56537;SDS011;42435;53.292;6.000;2022-08-20T08:07:25;4.28;;;1.40;;
56537;SDS011;42435;53.292;6.000;2022-08-20T08:09:52;1.65;;;0.73;;
56537;SDS011;42435;53.292;6.000;2022-08-20T08:12:18;4.32;;;1.08;;
56537;SDS011;42435;53.292;6.000;2022-08-20T08:14:45;3.80;;;0.90;;
56537;SDS011;42435;53.292;6.000;2022-08-20T08:17:13;2.67;;;0.70;;
56537;SDS011;42435;53.292;6.000;2022-08-20T08:19:45;3.78;;;1.00;;
56537;SDS011;42435;53.292;6.000;2022-08-20T08:22:14;5.20;;;1.20;;
56537;SDS011;42435;53.292;6.000;2022-08-20T08:24:42;4.32;;;1.00;;
56537;SDS011;42435;53.292;6.000;2022-08-20T08:27:11;8.18;;;1.55;;
56537;SDS011;42435;53.292;6.000;2022-08-20T08:29:38;2.70;;;0.50;;
56537;SDS011;42435;53.292;6.000;2022-08-20T08:32:04;4.60;;;1.02;;
56537;SDS011;42435;53.292;6.000;2022-08-20T08:34:31;6.47;;;1.30;;
56537;SDS011;42435;53.292;6.000;2022-08-20T08:36:59;4.03;;;1.20;;
56537;SDS011;42435;53.292;6.000;2022-08-20T08:39:27;6.60;;;1.33;;
56537;SDS011;42435;53.292;6.000;2022-08-20T08:41:54;5.30;;;1.10;;
56537;SDS011;42435;53.292;6.000;2022-08-20T08:44:23;4.85;;;1.13;;
56537;SDS011;42435;53.292;6.000;2022-08-20T08:47:06;9.63;;;1.42;;
56537;SDS011;42435;53.292;6.000;2022-08-20T08:49:42;4.03;;;0.88;;
56537;SDS011;42435;53.292;6.000;2022-08-20T08:52:14;4.90;;;1.20;;
56537;SDS011;42435;53.292;6.000;2022-08-20T08:54:46;4.93;;;1.02;;
56537;SDS011;42435;53.292;6.000;2022-08-20T08:57:15;3.72;;;1.23;;
56537;SDS011;42435;53.292;6.000;2022-08-20T08:59:42;3.90;;;1.30;;
56537;SDS011;42435;53.292;6.000;2022-08-20T09:02:11;6.25;;;1.15;;
56537;SDS011;42435;53.292;6.000;2022-08-20T09:04:46;5.60;;;1.33;;
56537;SDS011;42435;53.292;6.000;2022-08-20T09:07:13;5.47;;;1.42;;
56537;SDS011;42435;53.292;6.000;2022-08-20T09:09:41;5.53;;;1.17;;
56537;SDS011;42435;53.292;6.000;2022-08-20T09:12:15;6.63;;;1.42;;
56537;SDS011;42435;53.292;6.000;2022-08-20T09:14:43;4.25;;;1.13;;
56537;SDS011;42435;53.292;6.000;2022-08-20T09:17:10;4.72;;;1.20;;
56537;SDS011;42435;53.292;6.000;2022-08-20T09:19:36;6.22;;;1.20;;
56537;SDS011;42435;53.292;6.000;2022-08-20T09:22:09;5.90;;;1.40;;
56537;SDS011;42435;53.292;6.000;2022-08-20T09:24:36;2.58;;;0.85;;
56537;SDS011;42435;53.292;6.000;2022-08-20T09:27:02;5.05;;;0.93;;
56537;SDS011;42435;53.292;6.000;2022-08-20T09:29:28;6.50;;;1.50;;
56537;SDS011;42435;53.292;6.000;2022-08-20T09:32:07;4.68;;;1.02;;
56537;SDS011;42435;53.292;6.000;2022-08-20T09:34:48;3.65;;;1.10;;
56537;SDS011;42435;53.292;6.000;2022-08-20T09:37:19;1.98;;;0.90;;
56537;SDS011;42435;53.292;6.000;2022-08-20T09:39:45;3.75;;;0.90;;
56537;SDS011;42435;53.292;6.000;2022-08-20T09:42:14;5.78;;;1.23;;
56537;SDS011;42435;53.292;6.000;2022-08-20T09:44:42;2.83;;;1.08;;
56537;SDS011;42435;53.292;6.000;2022-08-20T09:47:09;4.30;;;0.98;;
56537;SDS011;42435;53.292;6.000;2022-08-20T09:49:35;3.78;;;0.95;;
56537;SDS011;42435;53.292;6.000;2022-08-20T09:52:02;6.00;;;1.33;;
56537;SDS011;42435;53.292;6.000;2022-08-20T09:54:29;2.95;;;1.20;;
56537;SDS011;42435;53.292;6.000;2022-08-20T09:56:58;3.22;;;0.90;;
56537;SDS011;42435;53.292;6.000;2022-08-20T09:59:27;4.28;;;1.33;;
56537;SDS011;42435;53.292;6.000;2022-08-20T10:01:53;4.32;;;1.05;;
56537;SDS011;42435;53.292;6.000;2022-08-20T10:04:19;3.72;;;1.10;;
56537;SDS011;42435;53.292;6.000;2022-08-20T10:06:45;2.75;;;0.95;;
56537;SDS011;42435;53.292;6.000;2022-08-20T10:09:10;4.25;;;1.10;;
56537;SDS011;42435;53.292;6.000;2022-08-20T10:11:36;3.75;;;1.30;;
56537;SDS011;42435;53.292;6.000;2022-08-20T10:14:01;2.17;;;0.82;;
56537;SDS011;42435;53.292;6.000;2022-08-20T10:16:27;4.03;;;1.00;;
56537;SDS011;42435;53.292;6.000;2022-08-20T10:18:53;4.60;;;1.17;;
56537;SDS011;42435;53.292;6.000;2022-08-20T10:21:19;3.38;;;0.80;;
56537;SDS011;42435;53.292;6.000;2022-08-20T10:23:44;4.95;;;1.33;;
56537;SDS011;42435;53.292;6.000;2022-08-20T10:26:10;3.58;;;0.80;;
56537;SDS011;42435;53.292;6.000;2022-08-20T10:28:37;4.55;;;1.05;;
56537;SDS011;42435;53.292;6.000;2022-08-20T10:31:07;4.20;;;1.33;;
56537;SDS011;42435;53.292;6.000;2022-08-20T10:33:34;5.05;;;1.48;;
56537;SDS011;42435;53.292;6.000;2022-08-20T10:36:07;5.72;;;1.52;;
56537;SDS011;42435;53.292;6.000;2022-08-20T10:38:35;3.45;;;1.02;;
56537;SDS011;42435;53.292;6.000;2022-08-20T10:41:00;2.97;;;1.10;;
56537;SDS011;42435;53.292;6.000;2022-08-20T10:43:26;5.13;;;1.50;;
56537;SDS011;42435;53.292;6.000;2022-08-20T10:45:52;7.25;;;0.95;;
56537;SDS011;42435;53.292;6.000;2022-08-20T10:48:18;4.63;;;0.88;;
56537;SDS011;42435;53.292;6.000;2022-08-20T10:50:43;2.75;;;0.75;;
56537;SDS011;42435;53.292;6.000;2022-08-20T10:53:09;2.75;;;0.93;;
56537;SDS011;42435;53.292;6.000;2022-08-20T10:55:35;6.28;;;1.27;;
56537;SDS011;42435;53.292;6.000;2022-08-20T10:58:03;4.30;;;1.00;;
56537;SDS011;42435;53.292;6.000;2022-08-20T11:00:29;5.07;;;1.02;;
56537;SDS011;42435;53.292;6.000;2022-08-20T11:02:55;1.75;;;0.80;;
56537;SDS011;42435;53.292;6.000;2022-08-20T11:05:21;4.63;;;1.17;;
56537;SDS011;42435;53.292;6.000;2022-08-20T11:07:46;3.88;;;1.95;;
56537;SDS011;42435;53.292;6.000;2022-08-20T11:10:12;6.38;;;1.33;;
56537;SDS011;42435;53.292;6.000;2022-08-20T11:12:38;4.40;;;1.33;;
56537;SDS011;42435;53.292;6.000;2022-08-20T11:15:04;5.25;;;0.90;;
56537;SDS011;42435;53.292;6.000;2022-08-20T11:17:31;4.30;;;0.90;;
56537;SDS011;42435;53.292;6.000;2022-08-20T11:19:59;5.28;;;1.10;;
56537;SDS011;42435;53.292;6.000;2022-08-20T11:22:26;4.90;;;1.13;;
56537;SDS011;42435;53.292;6.000;2022-08-20T11:24:52;3.42;;;1.33;;
56537;SDS011;42435;53.292;6.000;2022-08-20T11:27:20;4.47;;;1.13;;
56537;SDS011;42435;53.292;6.000;2022-08-20T11:29:49;2.72;;;1.00;;
56537;SDS011;42435;53.292;6.000;2022-08-20T11:32:14;3.40;;;1.10;;
56537;SDS011;42435;53.292;6.000;2022-08-20T11:34:40;5.30;;;1.38;;
56537;SDS011;42435;53.292;6.000;2022-08-20T11:37:06;2.67;;;0.90;;
56537;SDS011;42435;53.292;6.000;2022-08-20T11:39:32;6.68;;;1.98;;
56537;SDS011;42435;53.292;6.000;2022-08-20T11:41:57;3.00;;;0.93;;
56537;SDS011;42435;53.292;6.000;2022-08-20T11:44:23;2.33;;;1.13;;
56537;SDS011;42435;53.292;6.000;2022-08-20T11:46:49;7.78;;;1.38;;
56537;SDS011;42435;53.292;6.000;2022-08-20T11:49:14;4.28;;;1.40;;
56537;SDS011;42435;53.292;6.000;2022-08-20T11:51:40;4.28;;;1.40;;
56537;SDS011;42435;53.292;6.000;2022-08-20T11:54:06;4.07;;;1.27;;
56537;SDS011;42435;53.292;6.000;2022-08-20T11:56:31;3.03;;;1.35;;
56537;SDS011;42435;53.292;6.000;2022-08-20T11:58:57;4.63;;;1.58;;
56537;SDS011;42435;53.292;6.000;2022-08-20T12:01:23;4.78;;;1.40;;
56537;SDS011;42435;53.292;6.000;2022-08-20T12:03:48;5.15;;;1.35;;
56537;SDS011;42435;53.292;6.000;2022-08-20T12:06:14;4.25;;;1.25;;
56537;SDS011;42435;53.292;6.000;2022-08-20T12:08:40;2.45;;;0.95;;
56537;SDS011;42435;53.292;6.000;2022-08-20T12:11:05;4.38;;;1.45;;
56537;SDS011;42435;53.292;6.000;2022-08-20T12:18:26;5.57;;;1.20;;
56537;SDS011;42435;53.292;6.000;2022-08-20T12:20:52;5.72;;;1.67;;
56537;SDS011;42435;53.292;6.000;2022-08-20T12:23:18;4.75;;;1.30;;
56537;SDS011;42435;53.292;6.000;2022-08-20T12:25:43;3.72;;;1.10;;
56537;SDS011;42435;53.292;6.000;2022-08-20T12:28:11;4.15;;;1.35;;
56537;SDS011;42435;53.292;6.000;2022-08-20T12:30:37;3.95;;;1.23;;
56537;SDS011;42435;53.292;6.000;2022-08-20T12:33:03;3.65;;;1.10;;
56537;SDS011;42435;53.292;6.000;2022-08-20T12:35:29;2.55;;;1.10;;
56537;SDS011;42435;53.292;6.000;2022-08-20T12:37:56;2.83;;;1.20;;
56537;SDS011;42435;53.292;6.000;2022-08-20T12:40:25;5.95;;;1.42;;
56537;SDS011;42435;53.292;6.000;2022-08-20T12:42:51;5.18;;;1.13;;
56537;SDS011;42435;53.292;6.000;2022-08-20T12:45:18;2.38;;;0.98;;
56537;SDS011;42435;53.292;6.000;2022-08-20T12:47:44;2.80;;;1.05;;
56537;SDS011;42435;53.292;6.000;2022-08-20T12:50:19;3.13;;;1.13;;
56537;SDS011;42435;53.292;6.000;2022-08-20T12:52:46;2.03;;;0.95;;
56537;SDS011;42435;53.292;6.000;2022-08-20T12:55:14;3.25;;;1.30;;
56537;SDS011;42435;53.292;6.000;2022-08-20T12:57:42;3.15;;;0.70;;
56537;SDS011;42435;53.292;6.000;2022-08-20T13:00:19;4.97;;;0.93;;
56537;SDS011;42435;53.292;6.000;2022-08-20T13:02:56;3.63;;;1.20;;
56537;SDS011;42435;53.292;6.000;2022-08-20T13:05:23;3.05;;;1.25;;
56537;SDS011;42435;53.292;6.000;2022-08-20T13:07:50;5.25;;;1.50;;
56537;SDS011;42435;53.292;6.000;2022-08-20T13:10:27;3.92;;;1.00;;
56537;SDS011;42435;53.292;6.000;2022-08-20T13:12:54;3.95;;;1.00;;
56537;SDS011;42435;53.292;6.000;2022-08-20T13:15:20;6.70;;;1.30;;
56537;SDS011;42435;53.292;6.000;2022-08-20T13:17:50;4.03;;;1.35;;
56537;SDS011;42435;53.292;6.000;2022-08-20T13:20:17;5.45;;;1.00;;
56537;SDS011;42435;53.292;6.000;2022-08-20T13:22:44;4.05;;;1.10;;
56537;SDS011;42435;53.292;6.000;2022-08-20T13:25:10;4.32;;;1.23;;
56537;SDS011;42435;53.292;6.000;2022-08-20T13:27:36;4.53;;;1.17;;
56537;SDS011;42435;53.292;6.000;2022-08-20T13:30:05;2.67;;;1.13;;
56537;SDS011;42435;53.292;6.000;2022-08-20T13:32:31;4.25;;;1.40;;
56537;SDS011;42435;53.292;6.000;2022-08-20T13:34:57;5.35;;;1.75;;
56537;SDS011;42435;53.292;6.000;2022-08-20T13:37:23;5.03;;;1.35;;
56537;SDS011;42435;53.292;6.000;2022-08-20T13:39:55;2.50;;;1.33;;
56537;SDS011;42435;53.292;6.000;2022-08-20T13:42:21;3.47;;;1.10;;
56537;SDS011;42435;53.292;6.000;2022-08-20T13:44:47;5.45;;;1.10;;
56537;SDS011;42435;53.292;6.000;2022-08-20T13:49:56;5.40;;;1.40;;
56537;SDS011;42435;53.292;6.000;2022-08-20T13:52:24;2.47;;;0.88;;
56537;SDS011;42435;53.292;6.000;2022-08-20T13:54:50;4.28;;;1.52;;
56537;SDS011;42435;53.292;6.000;2022-08-20T13:57:16;5.45;;;1.30;;
56537;SDS011;42435;53.292;6.000;2022-08-20T13:59:43;5.43;;;1.23;;
56537;SDS011;42435;53.292;6.000;2022-08-20T14:02:10;4.82;;;1.20;;
56537;SDS011;42435;53.292;6.000;2022-08-20T14:04:37;3.90;;;1.42;;
56537;SDS011;42435;53.292;6.000;2022-08-20T14:07:13;5.88;;;2.42;;
56537;SDS011;42435;53.292;6.000;2022-08-20T14:09:48;7.95;;;2.00;;
56537;SDS011;42435;53.292;6.000;2022-08-20T14:12:15;10.38;;;4.55;;
56537;SDS011;42435;53.292;6.000;2022-08-20T14:14:41;19.85;;;10.02;;
56537;SDS011;42435;53.292;6.000;2022-08-20T14:17:12;6.82;;;2.72;;
56537;SDS011;42435;53.292;6.000;2022-08-20T14:19:37;4.55;;;1.65;;
56537;SDS011;42435;53.292;6.000;2022-08-20T14:22:03;6.28;;;1.70;;
56537;SDS011;42435;53.292;6.000;2022-08-20T14:24:28;5.80;;;2.00;;
56537;SDS011;42435;53.292;6.000;2022-08-20T14:26:55;7.22;;;1.35;;
56537;SDS011;42435;53.292;6.000;2022-08-20T14:29:20;3.45;;;1.20;;
56537;SDS011;42435;53.292;6.000;2022-08-20T14:31:47;8.23;;;1.48;;
56537;SDS011;42435;53.292;6.000;2022-08-20T14:48:47;5.80;;;1.63;;
56537;SDS011;42435;53.292;6.000;2022-08-20T14:51:13;5.22;;;1.92;;
56537;SDS011;42435;53.292;6.000;2022-08-20T14:53:38;4.30;;;1.45;;
56537;SDS011;42435;53.292;6.000;2022-08-20T14:56:04;5.18;;;1.25;;
56537;SDS011;42435;53.292;6.000;2022-08-20T14:58:30;1.77;;;1.02;;
56537;SDS011;42435;53.292;6.000;2022-08-20T15:00:56;4.30;;;1.58;;
56537;SDS011;42435;53.292;6.000;2022-08-20T15:03:21;3.35;;;1.33;;
56537;SDS011;42435;53.292;6.000;2022-08-20T15:05:52;4.60;;;1.67;;
56537;SDS011;42435;53.292;6.000;2022-08-20T15:08:18;5.38;;;2.00;;
56537;SDS011;42435;53.292;6.000;2022-08-20T15:10:43;7.88;;;1.77;;
56537;SDS011;42435;53.292;6.000;2022-08-20T15:13:09;5.95;;;1.85;;
56537;SDS011;42435;53.292;6.000;2022-08-20T15:15:34;8.40;;;1.77;;
56537;SDS011;42435;53.292;6.000;2022-08-20T15:18:01;8.05;;;2.08;;
56537;SDS011;42435;53.292;6.000;2022-08-20T15:20:28;7.95;;;3.03;;
56537;SDS011;42435;53.292;6.000;2022-08-20T15:22:56;5.60;;;3.05;;
56537;SDS011;42435;53.292;6.000;2022-08-20T15:25:23;5.65;;;2.55;;
56537;SDS011;42435;53.292;6.000;2022-08-20T15:27:50;6.00;;;2.05;;
56537;SDS011;42435;53.292;6.000;2022-08-20T15:30:20;3.95;;;1.58;;